sensor_id;sensor_type;location;lat;lon;timestamp;P1;durP1;ratioP1;P2;durP2;ratioP2
17214;SDS011;8723;51.502;6.918;2023-06-22T00:00:49;23.30;;;22.17;;
17214;SDS011;8723;51.502;6.918;2023-06-22T00:03:17;26.95;;;25.55;;
17214;SDS011;8723;51.502;6.918;2023-06-22T00:05:46;22.05;;;20.77;;
17214;SDS011;8723;51.502;6.918;2023-06-22T00:08:13;29.63;;;28.23;;
17214;SDS011;8723;51.502;6.918;2023-06-22T00:10:41;16.52;;;15.60;;
17214;SDS011;8723;51.502;6.918;2023-06-22T00:13:08;22.88;;;21.58;;
17214;SDS011;8723;51.502;6.918;2023-06-22T00:15:36;21.02;;;19.92;;
17214;SDS011;8723;51.502;6.918;2023-06-22T00:18:04;29.30;;;27.90;;
17214;SDS011;8723;51.502;6.918;2023-06-22T00:20:32;19.97;;;18.87;;
17214;SDS011;8723;51.502;6.918;2023-06-22T00:23:04;16.25;;;15.35;;
17214;SDS011;8723;51.502;6.918;2023-06-22T00:25:33;20.55;;;19.45;;
17214;SDS011;8723;51.502;6.918;2023-06-22T00:28:00;16.77;;;15.77;;
17214;SDS011;8723;51.502;6.918;2023-06-22T00:30:27;16.83;;;15.93;;
17214;SDS011;8723;51.502;6.918;2023-06-22T00:32:54;21.02;;;19.73;;
17214;SDS011;8723;51.502;6.918;2023-06-22T00:35:21;15.02;;;14.05;;
17214;SDS011;8723;51.502;6.918;2023-06-22T00:37:54;16.00;;;15.00;;
17214;SDS011;8723;51.502;6.918;2023-06-22T00:40:27;9.02;;;8.25;;
17214;SDS011;8723;51.502;6.918;2023-06-22T00:42:54;11.23;;;10.43;;
17214;SDS011;8723;51.502;6.918;2023-06-22T00:45:21;8.98;;;8.18;;
17214;SDS011;8723;51.502;6.918;2023-06-22T00:47:49;10.38;;;9.57;;
17214;SDS011;8723;51.502;6.918;2023-06-22T00:50:17;9.27;;;8.57;;
17214;SDS011;8723;51.502;6.918;2023-06-22T00:52:48;10.10;;;9.30;;
17214;SDS011;8723;51.502;6.918;2023-06-22T00:55:17;7.78;;;7.07;;
17214;SDS011;8723;51.502;6.918;2023-06-22T00:57:46;7.60;;;7.00;;
17214;SDS011;8723;51.502;6.918;2023-06-22T01:00:13;7.93;;;7.32;;
17214;SDS011;8723;51.502;6.918;2023-06-22T01:02:42;7.32;;;6.63;;
17214;SDS011;8723;51.502;6.918;2023-06-22T01:05:11;9.32;;;8.63;;
17214;SDS011;8723;51.502;6.918;2023-06-22T01:07:39;8.82;;;8.13;;
17214;SDS011;8723;51.502;6.918;2023-06-22T01:10:12;8.37;;;7.60;;
17214;SDS011;8723;51.502;6.918;2023-06-22T01:12:43;8.55;;;7.85;;
17214;SDS011;8723;51.502;6.918;2023-06-22T01:15:18;22.90;;;21.70;;
17214;SDS011;8723;51.502;6.918;2023-06-22T01:17:51;37.13;;;35.53;;
17214;SDS011;8723;51.502;6.918;2023-06-22T01:20:19;47.78;;;45.67;;
17214;SDS011;8723;51.502;6.918;2023-06-22T01:22:57;68.60;;;65.57;;
17214;SDS011;8723;51.502;6.918;2023-06-22T01:25:33;71.53;;;68.43;;
17214;SDS011;8723;51.502;6.918;2023-06-22T01:28:13;96.43;;;92.32;;
17214;SDS011;8723;51.502;6.918;2023-06-22T01:30:50;63.38;;;60.55;;
17214;SDS011;8723;51.502;6.918;2023-06-22T01:33:31;61.72;;;58.90;;
17214;SDS011;8723;51.502;6.918;2023-06-22T01:36:00;93.80;;;89.80;;
17214;SDS011;8723;51.502;6.918;2023-06-22T01:38:29;106.38;;;101.97;;
17214;SDS011;8723;51.502;6.918;2023-06-22T01:40:57;61.38;;;58.47;;
17214;SDS011;8723;51.502;6.918;2023-06-22T01:43:27;82.22;;;78.68;;
17214;SDS011;8723;51.502;6.918;2023-06-22T01:46:00;79.53;;;76.13;;
17214;SDS011;8723;51.502;6.918;2023-06-22T01:48:30;63.33;;;60.47;;
17214;SDS011;8723;51.502;6.918;2023-06-22T01:50:58;73.63;;;70.25;;
17214;SDS011;8723;51.502;6.918;2023-06-22T01:53:28;49.35;;;46.88;;
17214;SDS011;8723;51.502;6.918;2023-06-22T01:55:58;41.20;;;39.10;;
17214;SDS011;8723;51.502;6.918;2023-06-22T01:58:28;23.92;;;22.60;;
17214;SDS011;8723;51.502;6.918;2023-06-22T02:01:03;30.85;;;29.15;;
17214;SDS011;8723;51.502;6.918;2023-06-22T02:03:38;27.40;;;25.77;;
17214;SDS011;8723;51.502;6.918;2023-06-22T02:06:15;22.60;;;21.20;;
17214;SDS011;8723;51.502;6.918;2023-06-22T02:08:49;20.63;;;19.33;;
17214;SDS011;8723;51.502;6.918;2023-06-22T02:11:22;21.70;;;20.20;;
17214;SDS011;8723;51.502;6.918;2023-06-22T02:13:50;27.60;;;25.80;;
17214;SDS011;8723;51.502;6.918;2023-06-22T02:16:19;30.35;;;28.55;;
17214;SDS011;8723;51.502;6.918;2023-06-22T02:18:47;31.50;;;29.60;;
17214;SDS011;8723;51.502;6.918;2023-06-22T02:21:18;22.33;;;20.80;;
17214;SDS011;8723;51.502;6.918;2023-06-22T02:23:49;22.35;;;20.85;;
17214;SDS011;8723;51.502;6.918;2023-06-22T02:26:18;24.73;;;23.23;;
17214;SDS011;8723;51.502;6.918;2023-06-22T02:28:47;26.27;;;24.67;;
17214;SDS011;8723;51.502;6.918;2023-06-22T02:31:15;34.43;;;32.43;;
17214;SDS011;8723;51.502;6.918;2023-06-22T02:33:46;23.67;;;22.08;;
17214;SDS011;8723;51.502;6.918;2023-06-22T02:36:16;24.93;;;23.30;;
17214;SDS011;8723;51.502;6.918;2023-06-22T02:38:50;17.35;;;16.05;;
17214;SDS011;8723;51.502;6.918;2023-06-22T02:41:17;16.17;;;14.98;;
17214;SDS011;8723;51.502;6.918;2023-06-22T02:43:44;15.55;;;14.45;;
17214;SDS011;8723;51.502;6.918;2023-06-22T02:46:11;16.03;;;14.67;;
17214;SDS011;8723;51.502;6.918;2023-06-22T02:48:39;18.15;;;16.90;;
17214;SDS011;8723;51.502;6.918;2023-06-22T02:51:07;18.20;;;16.90;;
17214;SDS011;8723;51.502;6.918;2023-06-22T02:53:34;15.88;;;14.68;;
17214;SDS011;8723;51.502;6.918;2023-06-22T02:56:01;16.10;;;14.70;;
17214;SDS011;8723;51.502;6.918;2023-06-22T02:58:30;17.80;;;16.50;;
17214;SDS011;8723;51.502;6.918;2023-06-22T03:00:58;18.48;;;17.20;;
17214;SDS011;8723;51.502;6.918;2023-06-22T03:03:30;18.10;;;16.70;;
17214;SDS011;8723;51.502;6.918;2023-06-22T03:06:00;16.67;;;15.38;;
17214;SDS011;8723;51.502;6.918;2023-06-22T03:08:31;17.40;;;16.10;;
17214;SDS011;8723;51.502;6.918;2023-06-22T03:11:01;19.08;;;17.63;;
17214;SDS011;8723;51.502;6.918;2023-06-22T03:13:29;18.92;;;17.63;;
17214;SDS011;8723;51.502;6.918;2023-06-22T03:15:56;22.70;;;21.20;;
17214;SDS011;8723;51.502;6.918;2023-06-22T03:18:23;20.85;;;19.45;;
17214;SDS011;8723;51.502;6.918;2023-06-22T03:20:50;20.25;;;18.88;;
17214;SDS011;8723;51.502;6.918;2023-06-22T03:23:17;21.95;;;20.55;;
17214;SDS011;8723;51.502;6.918;2023-06-22T03:25:45;22.40;;;20.77;;
17214;SDS011;8723;51.502;6.918;2023-06-22T03:28:12;21.70;;;20.03;;
17214;SDS011;8723;51.502;6.918;2023-06-22T03:30:39;22.63;;;21.13;;
17214;SDS011;8723;51.502;6.918;2023-06-22T03:33:05;21.13;;;19.63;;
17214;SDS011;8723;51.502;6.918;2023-06-22T03:35:32;20.80;;;19.38;;
17214;SDS011;8723;51.502;6.918;2023-06-22T03:37:59;22.42;;;20.92;;
17214;SDS011;8723;51.502;6.918;2023-06-22T03:40:26;21.75;;;20.30;;
17214;SDS011;8723;51.502;6.918;2023-06-22T03:42:54;19.45;;;18.10;;
17214;SDS011;8723;51.502;6.918;2023-06-22T03:45:21;19.67;;;18.33;;
17214;SDS011;8723;51.502;6.918;2023-06-22T03:47:48;21.35;;;19.75;;
17214;SDS011;8723;51.502;6.918;2023-06-22T03:50:15;22.27;;;20.67;;
17214;SDS011;8723;51.502;6.918;2023-06-22T03:52:42;26.38;;;24.77;;
17214;SDS011;8723;51.502;6.918;2023-06-22T03:55:08;27.30;;;25.47;;
17214;SDS011;8723;51.502;6.918;2023-06-22T03:57:35;27.17;;;25.38;;
17214;SDS011;8723;51.502;6.918;2023-06-22T04:00:04;23.50;;;21.80;;
17214;SDS011;8723;51.502;6.918;2023-06-22T04:02:33;27.98;;;26.20;;
17214;SDS011;8723;51.502;6.918;2023-06-22T04:04:59;29.45;;;27.55;;
17214;SDS011;8723;51.502;6.918;2023-06-22T04:07:26;28.17;;;26.27;;
17214;SDS011;8723;51.502;6.918;2023-06-22T04:09:53;28.23;;;26.33;;
17214;SDS011;8723;51.502;6.918;2023-06-22T04:12:20;24.27;;;22.65;;
17214;SDS011;8723;51.502;6.918;2023-06-22T04:14:46;26.33;;;24.73;;
17214;SDS011;8723;51.502;6.918;2023-06-22T04:17:15;26.58;;;24.85;;
17214;SDS011;8723;51.502;6.918;2023-06-22T04:19:42;24.20;;;22.50;;
17214;SDS011;8723;51.502;6.918;2023-06-22T04:22:09;25.88;;;24.08;;
17214;SDS011;8723;51.502;6.918;2023-06-22T04:24:37;24.23;;;22.52;;
17214;SDS011;8723;51.502;6.918;2023-06-22T04:27:04;22.38;;;20.67;;
17214;SDS011;8723;51.502;6.918;2023-06-22T04:29:31;21.45;;;19.85;;
17214;SDS011;8723;51.502;6.918;2023-06-22T04:31:58;21.38;;;19.77;;
17214;SDS011;8723;51.502;6.918;2023-06-22T04:34:29;18.67;;;17.27;;
17214;SDS011;8723;51.502;6.918;2023-06-22T04:36:56;18.20;;;16.63;;
17214;SDS011;8723;51.502;6.918;2023-06-22T04:39:23;20.20;;;18.60;;
17214;SDS011;8723;51.502;6.918;2023-06-22T04:41:52;19.45;;;18.05;;
17214;SDS011;8723;51.502;6.918;2023-06-22T04:44:19;21.00;;;19.60;;
17214;SDS011;8723;51.502;6.918;2023-06-22T04:46:49;17.27;;;15.77;;
17214;SDS011;8723;51.502;6.918;2023-06-22T04:49:19;27.63;;;26.02;;
17214;SDS011;8723;51.502;6.918;2023-06-22T04:51:48;25.52;;;23.90;;
17214;SDS011;8723;51.502;6.918;2023-06-22T04:54:16;25.05;;;23.25;;
17214;SDS011;8723;51.502;6.918;2023-06-22T04:56:43;21.40;;;19.90;;
17214;SDS011;8723;51.502;6.918;2023-06-22T04:59:11;18.55;;;17.13;;
17214;SDS011;8723;51.502;6.918;2023-06-22T05:01:38;21.60;;;20.00;;
17214;SDS011;8723;51.502;6.918;2023-06-22T05:04:05;19.25;;;17.77;;
17214;SDS011;8723;51.502;6.918;2023-06-22T05:06:32;22.70;;;21.10;;
17214;SDS011;8723;51.502;6.918;2023-06-22T05:09:01;18.35;;;16.95;;
17214;SDS011;8723;51.502;6.918;2023-06-22T05:11:28;19.20;;;17.70;;
17214;SDS011;8723;51.502;6.918;2023-06-22T05:13:55;23.98;;;22.25;;
17214;SDS011;8723;51.502;6.918;2023-06-22T05:16:22;20.00;;;18.50;;
17214;SDS011;8723;51.502;6.918;2023-06-22T05:18:51;19.23;;;17.63;;
17214;SDS011;8723;51.502;6.918;2023-06-22T05:21:21;21.73;;;20.10;;
17214;SDS011;8723;51.502;6.918;2023-06-22T05:23:49;20.42;;;18.83;;
17214;SDS011;8723;51.502;6.918;2023-06-22T05:26:17;20.73;;;19.13;;
17214;SDS011;8723;51.502;6.918;2023-06-22T05:28:45;21.98;;;20.27;;
17214;SDS011;8723;51.502;6.918;2023-06-22T05:31:12;21.73;;;20.00;;
17214;SDS011;8723;51.502;6.918;2023-06-22T05:33:40;22.08;;;20.38;;
17214;SDS011;8723;51.502;6.918;2023-06-22T05:36:07;19.77;;;18.27;;
17214;SDS011;8723;51.502;6.918;2023-06-22T05:38:34;20.92;;;19.13;;
17214;SDS011;8723;51.502;6.918;2023-06-22T05:41:00;24.50;;;22.50;;
17214;SDS011;8723;51.502;6.918;2023-06-22T05:43:29;21.38;;;19.48;;
17214;SDS011;8723;51.502;6.918;2023-06-22T05:45:56;21.53;;;19.70;;
17214;SDS011;8723;51.502;6.918;2023-06-22T05:48:23;21.83;;;20.13;;
17214;SDS011;8723;51.502;6.918;2023-06-22T05:50:50;24.23;;;22.38;;
17214;SDS011;8723;51.502;6.918;2023-06-22T05:53:17;22.90;;;21.20;;
17214;SDS011;8723;51.502;6.918;2023-06-22T05:55:44;21.40;;;19.70;;
17214;SDS011;8723;51.502;6.918;2023-06-22T05:58:10;27.73;;;25.70;;
17214;SDS011;8723;51.502;6.918;2023-06-22T06:00:39;63.35;;;59.63;;
17214;SDS011;8723;51.502;6.918;2023-06-22T06:03:08;48.05;;;45.22;;
17214;SDS011;8723;51.502;6.918;2023-06-22T06:05:35;58.42;;;54.85;;
17214;SDS011;8723;51.502;6.918;2023-06-22T06:08:03;114.63;;;108.83;;
17214;SDS011;8723;51.502;6.918;2023-06-22T06:10:31;71.30;;;67.40;;
17214;SDS011;8723;51.502;6.918;2023-06-22T06:12:58;45.90;;;42.93;;
17214;SDS011;8723;51.502;6.918;2023-06-22T06:15:27;89.50;;;84.65;;
17214;SDS011;8723;51.502;6.918;2023-06-22T06:17:55;55.20;;;51.67;;
17214;SDS011;8723;51.502;6.918;2023-06-22T06:20:23;44.40;;;41.45;;
17214;SDS011;8723;51.502;6.918;2023-06-22T06:22:51;36.55;;;33.90;;
17214;SDS011;8723;51.502;6.918;2023-06-22T06:25:18;39.83;;;37.15;;
17214;SDS011;8723;51.502;6.918;2023-06-22T06:27:47;45.43;;;42.47;;
17214;SDS011;8723;51.502;6.918;2023-06-22T06:30:16;42.60;;;39.87;;
17214;SDS011;8723;51.502;6.918;2023-06-22T06:32:44;44.85;;;41.80;;
17214;SDS011;8723;51.502;6.918;2023-06-22T06:35:14;41.00;;;38.28;;
17214;SDS011;8723;51.502;6.918;2023-06-22T06:37:42;36.08;;;33.35;;
17214;SDS011;8723;51.502;6.918;2023-06-22T06:40:10;32.88;;;30.30;;
17214;SDS011;8723;51.502;6.918;2023-06-22T06:42:38;133.43;;;126.68;;
17214;SDS011;8723;51.502;6.918;2023-06-22T06:45:07;122.93;;;116.30;;
17214;SDS011;8723;51.502;6.918;2023-06-22T06:47:34;86.75;;;82.07;;
17214;SDS011;8723;51.502;6.918;2023-06-22T06:50:01;88.47;;;83.43;;
17214;SDS011;8723;51.502;6.918;2023-06-22T06:52:31;91.57;;;86.72;;
17214;SDS011;8723;51.502;6.918;2023-06-22T06:54:58;81.03;;;76.63;;
17214;SDS011;8723;51.502;6.918;2023-06-22T06:57:25;66.28;;;62.42;;
17214;SDS011;8723;51.502;6.918;2023-06-22T06:59:53;67.63;;;63.47;;
17214;SDS011;8723;51.502;6.918;2023-06-22T07:02:20;63.85;;;59.65;;
17214;SDS011;8723;51.502;6.918;2023-06-22T07:04:47;49.42;;;46.13;;
17214;SDS011;8723;51.502;6.918;2023-06-22T07:07:14;39.40;;;36.63;;
17214;SDS011;8723;51.502;6.918;2023-06-22T07:09:42;38.85;;;36.05;;
17214;SDS011;8723;51.502;6.918;2023-06-22T07:12:09;31.85;;;29.50;;
17214;SDS011;8723;51.502;6.918;2023-06-22T07:14:36;29.35;;;27.02;;
17214;SDS011;8723;51.502;6.918;2023-06-22T07:17:03;30.35;;;27.95;;
17214;SDS011;8723;51.502;6.918;2023-06-22T07:19:30;33.03;;;30.52;;
17214;SDS011;8723;51.502;6.918;2023-06-22T07:21:59;38.15;;;35.35;;
17214;SDS011;8723;51.502;6.918;2023-06-22T07:24:25;32.70;;;30.10;;
17214;SDS011;8723;51.502;6.918;2023-06-22T07:26:53;32.33;;;29.73;;
17214;SDS011;8723;51.502;6.918;2023-06-22T07:29:24;33.05;;;30.50;;
17214;SDS011;8723;51.502;6.918;2023-06-22T07:31:51;36.50;;;33.83;;
17214;SDS011;8723;51.502;6.918;2023-06-22T07:34:21;34.67;;;32.08;;
17214;SDS011;8723;51.502;6.918;2023-06-22T07:36:48;31.33;;;28.83;;
17214;SDS011;8723;51.502;6.918;2023-06-22T07:39:14;34.53;;;31.85;;
17214;SDS011;8723;51.502;6.918;2023-06-22T07:41:41;32.80;;;30.20;;
17214;SDS011;8723;51.502;6.918;2023-06-22T07:44:10;35.70;;;33.20;;
17214;SDS011;8723;51.502;6.918;2023-06-22T07:46:36;36.63;;;33.93;;
17214;SDS011;8723;51.502;6.918;2023-06-22T07:49:03;35.20;;;32.65;;
17214;SDS011;8723;51.502;6.918;2023-06-22T07:51:30;34.75;;;32.25;;
17214;SDS011;8723;51.502;6.918;2023-06-22T07:53:57;34.03;;;31.58;;
17214;SDS011;8723;51.502;6.918;2023-06-22T07:56:23;35.97;;;33.25;;
17214;SDS011;8723;51.502;6.918;2023-06-22T07:58:50;32.50;;;29.83;;
17214;SDS011;8723;51.502;6.918;2023-06-22T08:01:19;31.17;;;28.88;;
17214;SDS011;8723;51.502;6.918;2023-06-22T08:03:47;30.00;;;27.67;;
17214;SDS011;8723;51.502;6.918;2023-06-22T08:06:14;29.07;;;26.87;;
17214;SDS011;8723;51.502;6.918;2023-06-22T08:08:41;28.83;;;26.52;;
17214;SDS011;8723;51.502;6.918;2023-06-22T08:11:08;29.27;;;26.88;;
17214;SDS011;8723;51.502;6.918;2023-06-22T08:13:35;28.48;;;26.10;;
17214;SDS011;8723;51.502;6.918;2023-06-22T08:16:02;27.27;;;24.98;;
17214;SDS011;8723;51.502;6.918;2023-06-22T08:18:30;27.10;;;24.90;;
17214;SDS011;8723;51.502;6.918;2023-06-22T08:20:57;22.00;;;20.25;;
17214;SDS011;8723;51.502;6.918;2023-06-22T08:23:24;20.90;;;19.15;;
17214;SDS011;8723;51.502;6.918;2023-06-22T08:25:51;25.30;;;23.08;;
17214;SDS011;8723;51.502;6.918;2023-06-22T08:28:17;25.30;;;22.90;;
17214;SDS011;8723;51.502;6.918;2023-06-22T08:30:44;25.55;;;23.55;;
17214;SDS011;8723;51.502;6.918;2023-06-22T08:33:11;26.40;;;24.42;;
17214;SDS011;8723;51.502;6.918;2023-06-22T08:35:40;25.50;;;23.48;;
17214;SDS011;8723;51.502;6.918;2023-06-22T08:38:07;25.42;;;23.52;;
17214;SDS011;8723;51.502;6.918;2023-06-22T08:40:34;25.73;;;23.60;;
17214;SDS011;8723;51.502;6.918;2023-06-22T08:43:00;29.02;;;26.63;;
17214;SDS011;8723;51.502;6.918;2023-06-22T08:45:27;27.90;;;25.50;;
17214;SDS011;8723;51.502;6.918;2023-06-22T08:47:54;24.88;;;22.77;;
17214;SDS011;8723;51.502;6.918;2023-06-22T08:50:21;25.17;;;23.27;;
17214;SDS011;8723;51.502;6.918;2023-06-22T08:52:49;26.52;;;24.55;;
17214;SDS011;8723;51.502;6.918;2023-06-22T08:55:16;26.17;;;24.07;;
17214;SDS011;8723;51.502;6.918;2023-06-22T08:57:43;28.17;;;25.90;;
17214;SDS011;8723;51.502;6.918;2023-06-22T09:00:10;26.50;;;24.40;;
17214;SDS011;8723;51.502;6.918;2023-06-22T09:02:45;27.70;;;25.70;;
17214;SDS011;8723;51.502;6.918;2023-06-22T09:05:12;32.55;;;30.10;;
17214;SDS011;8723;51.502;6.918;2023-06-22T09:07:39;29.73;;;27.42;;
17214;SDS011;8723;51.502;6.918;2023-06-22T09:10:08;29.38;;;26.85;;
17214;SDS011;8723;51.502;6.918;2023-06-22T09:12:35;28.27;;;25.98;;
17214;SDS011;8723;51.502;6.918;2023-06-22T09:15:03;28.25;;;25.92;;
17214;SDS011;8723;51.502;6.918;2023-06-22T09:17:32;28.10;;;26.10;;
17214;SDS011;8723;51.502;6.918;2023-06-22T09:20:00;31.92;;;29.65;;
17214;SDS011;8723;51.502;6.918;2023-06-22T09:22:29;35.08;;;32.70;;
17214;SDS011;8723;51.502;6.918;2023-06-22T09:24:56;28.60;;;26.40;;
17214;SDS011;8723;51.502;6.918;2023-06-22T09:27:24;29.37;;;27.47;;
17214;SDS011;8723;51.502;6.918;2023-06-22T09:29:51;32.73;;;30.53;;
17214;SDS011;8723;51.502;6.918;2023-06-22T09:32:18;33.00;;;30.90;;
17214;SDS011;8723;51.502;6.918;2023-06-22T09:34:45;33.45;;;31.08;;
17214;SDS011;8723;51.502;6.918;2023-06-22T09:37:11;35.60;;;33.10;;
17214;SDS011;8723;51.502;6.918;2023-06-22T09:39:38;35.60;;;33.05;;
17214;SDS011;8723;51.502;6.918;2023-06-22T09:42:05;35.42;;;33.15;;
17214;SDS011;8723;51.502;6.918;2023-06-22T09:44:34;32.50;;;30.23;;
17214;SDS011;8723;51.502;6.918;2023-06-22T09:47:00;31.65;;;29.73;;
17214;SDS011;8723;51.502;6.918;2023-06-22T09:49:27;29.63;;;27.73;;
17214;SDS011;8723;51.502;6.918;2023-06-22T09:51:54;34.75;;;32.35;;
17214;SDS011;8723;51.502;6.918;2023-06-22T09:54:21;33.25;;;31.25;;
17214;SDS011;8723;51.502;6.918;2023-06-22T09:56:48;28.92;;;27.33;;
17214;SDS011;8723;51.502;6.918;2023-06-22T09:59:14;34.03;;;31.83;;
17214;SDS011;8723;51.502;6.918;2023-06-22T10:01:43;35.20;;;32.73;;
17214;SDS011;8723;51.502;6.918;2023-06-22T10:04:09;31.10;;;29.30;;
17214;SDS011;8723;51.502;6.918;2023-06-22T10:06:36;34.13;;;32.13;;
17214;SDS011;8723;51.502;6.918;2023-06-22T10:09:05;36.70;;;34.60;;
17214;SDS011;8723;51.502;6.918;2023-06-22T10:11:32;40.78;;;38.35;;
17214;SDS011;8723;51.502;6.918;2023-06-22T10:14:00;40.00;;;37.70;;
17214;SDS011;8723;51.502;6.918;2023-06-22T10:16:30;36.38;;;34.15;;
17214;SDS011;8723;51.502;6.918;2023-06-22T10:18:59;26.20;;;24.40;;
17214;SDS011;8723;51.502;6.918;2023-06-22T10:21:25;29.55;;;27.52;;
17214;SDS011;8723;51.502;6.918;2023-06-22T10:23:53;20.42;;;18.92;;
17214;SDS011;8723;51.502;6.918;2023-06-22T10:26:20;17.17;;;15.97;;
17214;SDS011;8723;51.502;6.918;2023-06-22T10:28:47;16.60;;;15.43;;
17214;SDS011;8723;51.502;6.918;2023-06-22T10:31:14;15.77;;;14.57;;
17214;SDS011;8723;51.502;6.918;2023-06-22T10:33:41;15.30;;;14.15;;
17214;SDS011;8723;51.502;6.918;2023-06-22T10:36:10;16.38;;;15.18;;
17214;SDS011;8723;51.502;6.918;2023-06-22T10:38:37;21.30;;;19.80;;
17214;SDS011;8723;51.502;6.918;2023-06-22T10:41:04;16.88;;;15.57;;
17214;SDS011;8723;51.502;6.918;2023-06-22T10:43:30;14.93;;;13.73;;
17214;SDS011;8723;51.502;6.918;2023-06-22T10:45:57;13.88;;;12.77;;
17214;SDS011;8723;51.502;6.918;2023-06-22T10:48:24;13.93;;;12.82;;
17214;SDS011;8723;51.502;6.918;2023-06-22T10:50:51;13.60;;;12.40;;
17214;SDS011;8723;51.502;6.918;2023-06-22T10:53:19;15.63;;;14.32;;
17214;SDS011;8723;51.502;6.918;2023-06-22T10:55:46;15.13;;;14.02;;
17214;SDS011;8723;51.502;6.918;2023-06-22T10:58:13;15.13;;;14.02;;
17214;SDS011;8723;51.502;6.918;2023-06-22T11:00:40;17.30;;;16.10;;
17214;SDS011;8723;51.502;6.918;2023-06-22T11:03:07;17.13;;;15.93;;
17214;SDS011;8723;51.502;6.918;2023-06-22T11:05:33;18.15;;;16.85;;
17214;SDS011;8723;51.502;6.918;2023-06-22T11:08:00;18.83;;;17.58;;
17214;SDS011;8723;51.502;6.918;2023-06-22T11:10:28;19.33;;;18.13;;
17214;SDS011;8723;51.502;6.918;2023-06-22T11:12:55;17.53;;;16.30;;
17214;SDS011;8723;51.502;6.918;2023-06-22T11:15:23;12.97;;;11.93;;
17214;SDS011;8723;51.502;6.918;2023-06-22T11:17:49;14.65;;;13.50;;
17214;SDS011;8723;51.502;6.918;2023-06-22T11:20:16;14.80;;;13.70;;
17214;SDS011;8723;51.502;6.918;2023-06-22T11:22:43;12.05;;;11.05;;
17214;SDS011;8723;51.502;6.918;2023-06-22T11:25:10;15.87;;;14.67;;
17214;SDS011;8723;51.502;6.918;2023-06-22T11:27:39;15.73;;;14.53;;
17214;SDS011;8723;51.502;6.918;2023-06-22T11:30:06;15.50;;;14.20;;
17214;SDS011;8723;51.502;6.918;2023-06-22T11:32:33;21.08;;;19.58;;
17214;SDS011;8723;51.502;6.918;2023-06-22T11:35:00;14.85;;;13.65;;
17214;SDS011;8723;51.502;6.918;2023-06-22T11:37:27;19.13;;;17.75;;
17214;SDS011;8723;51.502;6.918;2023-06-22T11:39:54;18.45;;;16.95;;
17214;SDS011;8723;51.502;6.918;2023-06-22T11:42:21;18.25;;;16.75;;
17214;SDS011;8723;51.502;6.918;2023-06-22T11:44:49;18.58;;;16.90;;
17214;SDS011;8723;51.502;6.918;2023-06-22T11:47:16;18.85;;;17.35;;
17214;SDS011;8723;51.502;6.918;2023-06-22T11:49:43;18.52;;;17.02;;
17214;SDS011;8723;51.502;6.918;2023-06-22T11:52:10;24.83;;;22.83;;
17214;SDS011;8723;51.502;6.918;2023-06-22T11:54:37;32.75;;;30.45;;
17214;SDS011;8723;51.502;6.918;2023-06-22T11:57:04;22.67;;;20.67;;
17214;SDS011;8723;51.502;6.918;2023-06-22T11:59:31;24.50;;;22.50;;
17214;SDS011;8723;51.502;6.918;2023-06-22T12:01:59;21.92;;;19.95;;
17214;SDS011;8723;51.502;6.918;2023-06-22T12:04:26;26.35;;;24.17;;
17214;SDS011;8723;51.502;6.918;2023-06-22T12:06:53;27.58;;;25.25;;
17214;SDS011;8723;51.502;6.918;2023-06-22T12:09:19;32.28;;;29.52;;
17214;SDS011;8723;51.502;6.918;2023-06-22T12:11:46;33.22;;;30.40;;
17214;SDS011;8723;51.502;6.918;2023-06-22T12:14:13;30.17;;;27.45;;
17214;SDS011;8723;51.502;6.918;2023-06-22T12:16:40;39.42;;;36.47;;
17214;SDS011;8723;51.502;6.918;2023-06-22T12:19:10;32.90;;;30.40;;
17214;SDS011;8723;51.502;6.918;2023-06-22T12:21:37;31.30;;;28.67;;
17214;SDS011;8723;51.502;6.918;2023-06-22T12:24:04;39.47;;;36.42;;
17214;SDS011;8723;51.502;6.918;2023-06-22T12:26:31;39.40;;;36.40;;
17214;SDS011;8723;51.502;6.918;2023-06-22T12:28:58;36.63;;;33.70;;
17214;SDS011;8723;51.502;6.918;2023-06-22T12:31:24;32.78;;;29.77;;
17214;SDS011;8723;51.502;6.918;2023-06-22T12:33:51;36.20;;;33.20;;
17214;SDS011;8723;51.502;6.918;2023-06-22T12:36:19;35.60;;;32.45;;
17214;SDS011;8723;51.502;6.918;2023-06-22T12:38:46;37.40;;;34.30;;
17214;SDS011;8723;51.502;6.918;2023-06-22T12:41:13;36.25;;;33.15;;
17214;SDS011;8723;51.502;6.918;2023-06-22T12:43:40;33.17;;;30.30;;
17214;SDS011;8723;51.502;6.918;2023-06-22T12:46:07;31.10;;;28.25;;
17214;SDS011;8723;51.502;6.918;2023-06-22T12:48:33;30.10;;;27.30;;
17214;SDS011;8723;51.502;6.918;2023-06-22T12:51:06;32.53;;;29.50;;
17214;SDS011;8723;51.502;6.918;2023-06-22T12:53:34;34.17;;;31.17;;
17214;SDS011;8723;51.502;6.918;2023-06-22T12:56:01;34.07;;;31.37;;
17214;SDS011;8723;51.502;6.918;2023-06-22T12:58:28;30.03;;;27.30;;
17214;SDS011;8723;51.502;6.918;2023-06-22T13:00:55;32.10;;;29.40;;
17214;SDS011;8723;51.502;6.918;2023-06-22T13:03:22;31.08;;;28.25;;
17214;SDS011;8723;51.502;6.918;2023-06-22T13:05:50;32.72;;;29.83;;
17214;SDS011;8723;51.502;6.918;2023-06-22T13:08:17;34.67;;;31.77;;
17214;SDS011;8723;51.502;6.918;2023-06-22T13:10:45;31.52;;;28.63;;
17214;SDS011;8723;51.502;6.918;2023-06-22T13:13:12;29.10;;;26.58;;
17214;SDS011;8723;51.502;6.918;2023-06-22T13:15:39;32.60;;;29.63;;
17214;SDS011;8723;51.502;6.918;2023-06-22T13:18:06;32.45;;;29.55;;
17214;SDS011;8723;51.502;6.918;2023-06-22T13:20:33;31.13;;;28.42;;
17214;SDS011;8723;51.502;6.918;2023-06-22T13:23:00;30.95;;;28.20;;
17214;SDS011;8723;51.502;6.918;2023-06-22T13:25:27;32.78;;;29.77;;
17214;SDS011;8723;51.502;6.918;2023-06-22T13:27:55;32.90;;;29.95;;
17214;SDS011;8723;51.502;6.918;2023-06-22T13:30:23;32.08;;;29.20;;
17214;SDS011;8723;51.502;6.918;2023-06-22T13:32:50;31.47;;;28.57;;
17214;SDS011;8723;51.502;6.918;2023-06-22T13:35:17;33.17;;;30.17;;
17214;SDS011;8723;51.502;6.918;2023-06-22T13:37:43;32.38;;;29.48;;
17214;SDS011;8723;51.502;6.918;2023-06-22T13:40:10;32.22;;;29.35;;
17214;SDS011;8723;51.502;6.918;2023-06-22T13:42:37;32.67;;;29.58;;
17214;SDS011;8723;51.502;6.918;2023-06-22T13:45:06;31.70;;;28.90;;
17214;SDS011;8723;51.502;6.918;2023-06-22T13:47:34;32.08;;;29.30;;
17214;SDS011;8723;51.502;6.918;2023-06-22T13:50:00;32.35;;;29.55;;
17214;SDS011;8723;51.502;6.918;2023-06-22T13:52:27;33.25;;;30.38;;
17214;SDS011;8723;51.502;6.918;2023-06-22T13:54:54;30.85;;;28.15;;
17214;SDS011;8723;51.502;6.918;2023-06-22T13:57:21;28.65;;;26.00;;
17214;SDS011;8723;51.502;6.918;2023-06-22T13:59:48;29.10;;;26.60;;
17214;SDS011;8723;51.502;6.918;2023-06-22T14:02:16;27.58;;;25.08;;
17214;SDS011;8723;51.502;6.918;2023-06-22T14:04:43;28.73;;;26.00;;
17214;SDS011;8723;51.502;6.918;2023-06-22T14:07:09;28.00;;;25.60;;
17214;SDS011;8723;51.502;6.918;2023-06-22T14:09:36;25.63;;;23.42;;
17214;SDS011;8723;51.502;6.918;2023-06-22T14:12:03;28.65;;;26.05;;
17214;SDS011;8723;51.502;6.918;2023-06-22T14:14:31;28.50;;;26.08;;
17214;SDS011;8723;51.502;6.918;2023-06-22T14:16:58;27.13;;;24.73;;
17214;SDS011;8723;51.502;6.918;2023-06-22T14:19:26;30.33;;;27.73;;
17214;SDS011;8723;51.502;6.918;2023-06-22T14:21:52;29.52;;;26.83;;
17214;SDS011;8723;51.502;6.918;2023-06-22T14:24:19;28.27;;;25.88;;
17214;SDS011;8723;51.502;6.918;2023-06-22T14:26:46;27.65;;;25.30;;
17214;SDS011;8723;51.502;6.918;2023-06-22T14:29:13;28.52;;;25.95;;
17214;SDS011;8723;51.502;6.918;2023-06-22T14:31:40;29.95;;;27.25;;
17214;SDS011;8723;51.502;6.918;2023-06-22T14:34:07;28.33;;;25.83;;
17214;SDS011;8723;51.502;6.918;2023-06-22T14:36:35;26.38;;;24.08;;
17214;SDS011;8723;51.502;6.918;2023-06-22T14:39:02;27.27;;;24.95;;